createdAt,value
2023-03-26T00:00:55.774Z,2.37
2023-03-26T00:03:27.789Z,2.60
2023-03-26T00:06:03.872Z,2.60
2023-03-26T00:08:31.929Z,2.77
2023-03-26T00:11:01.029Z,2.53
2023-03-26T00:13:29.078Z,2.60
2023-03-26T00:15:57.109Z,2.30
2023-03-26T00:18:30.603Z,2.33
2023-03-26T00:20:59.459Z,2.37
2023-03-26T00:23:28.421Z,2.27
2023-03-26T00:25:57.180Z,2.80
2023-03-26T00:28:26.314Z,2.20
2023-03-26T00:30:59.579Z,2.20
2023-03-26T00:33:29.291Z,2.20
2023-03-26T00:35:58.722Z,2.13
2023-03-26T00:38:28.316Z,2.10
2023-03-26T00:40:56.492Z,2.33
2023-03-26T00:43:26.440Z,2.30
2023-03-26T00:45:55.779Z,2.00
2023-03-26T00:48:31.610Z,1.67
2023-03-26T00:51:12.253Z,2.00
2023-03-26T00:53:41.247Z,1.47
2023-03-26T00:56:10.544Z,1.60
2023-03-26T00:58:39.045Z,1.70
2023-03-26T01:01:09.291Z,1.53
2023-03-26T01:03:39.343Z,1.60
2023-03-26T01:06:09.293Z,1.97
2023-03-26T01:08:40.235Z,1.77
2023-03-26T01:11:13.920Z,1.80
2023-03-26T01:13:44.026Z,1.93
2023-03-26T01:16:20.413Z,1.50
2023-03-26T01:18:49.460Z,1.50
2023-03-26T01:21:22.530Z,1.57
2023-03-26T01:23:59.698Z,1.40
2023-03-26T01:26:39.672Z,1.63
2023-03-26T01:29:10.107Z,1.83
2023-03-26T01:31:44.434Z,2.23
2023-03-26T01:34:16.027Z,1.90
2023-03-26T01:36:50.061Z,1.50
2023-03-26T01:39:26.102Z,1.77
2023-03-26T01:41:58.598Z,1.70
2023-03-26T01:44:31.157Z,1.50
2023-03-26T01:47:00.487Z,1.70
2023-03-26T01:49:28.940Z,2.10
2023-03-26T01:51:57.845Z,1.90
2023-03-26T01:54:30.369Z,1.73
2023-03-26T01:57:04.901Z,1.67
2023-03-26T01:59:53.633Z,1.80
2023-03-26T02:02:28.898Z,1.30
2023-03-26T02:05:02.597Z,1.30
2023-03-26T02:07:37.842Z,1.53
2023-03-26T02:10:11.352Z,1.30
2023-03-26T02:12:41.201Z,1.47
2023-03-26T02:15:10.493Z,1.53
2023-03-26T02:17:40.162Z,1.50
2023-03-26T02:20:10.643Z,1.40
2023-03-26T02:22:40.919Z,1.50
2023-03-26T02:25:14.051Z,1.60
2023-03-26T02:27:42.346Z,1.70
2023-03-26T02:30:17.073Z,1.73
2023-03-26T02:32:47.607Z,1.97
2023-03-26T02:35:15.616Z,2.10
2023-03-26T02:37:46.804Z,2.03
2023-03-26T02:40:21.205Z,2.20
2023-03-26T02:42:50.353Z,2.30
2023-03-26T02:45:18.408Z,2.40
2023-03-26T02:48:18.492Z,2.10
2023-03-26T02:50:54.254Z,2.30
2023-03-26T02:53:39.409Z,2.03
2023-03-26T02:56:39.110Z,2.40
2023-03-26T02:59:29.791Z,2.17
2023-03-26T03:02:18.243Z,2.07
2023-03-26T03:04:47.075Z,1.90
2023-03-26T03:07:15.886Z,1.97
2023-03-26T03:09:44.223Z,2.40
2023-03-26T03:12:36.814Z,2.20
2023-03-26T03:15:05.044Z,2.23
2023-03-26T03:17:32.948Z,2.50
2023-03-26T03:20:00.837Z,2.27
2023-03-26T03:22:28.704Z,2.07
2023-03-26T03:24:57.660Z,2.10
2023-03-26T03:27:26.047Z,2.00
2023-03-26T03:30:11.809Z,2.30
2023-03-26T03:32:59.946Z,2.30
2023-03-26T03:35:29.578Z,2.30
2023-03-26T03:38:00.355Z,2.40
2023-03-26T03:40:30.173Z,2.50
2023-03-26T03:42:58.208Z,2.07
2023-03-26T03:45:37.236Z,2.20
2023-03-26T03:48:11.333Z,2.10
2023-03-26T03:50:42.636Z,2.37
2023-03-26T03:53:36.951Z,2.87
2023-03-26T03:56:10.210Z,2.17
2023-03-26T03:59:01.043Z,2.30
2023-03-26T04:01:35.824Z,2.60
2023-03-26T04:04:08.653Z,2.00
2023-03-26T04:06:59.564Z,2.27
2023-03-26T04:09:33.179Z,1.93
2023-03-26T04:12:05.863Z,2.27
2023-03-26T04:14:54.006Z,2.10
2023-03-26T04:17:24.015Z,2.17
2023-03-26T04:19:55.756Z,2.37
2023-03-26T04:22:34.484Z,1.70
2023-03-26T04:25:05.212Z,2.10
2023-03-26T04:27:39.193Z,2.07
2023-03-26T04:30:17.209Z,2.10
2023-03-26T04:32:47.420Z,2.10
2023-03-26T04:35:16.393Z,2.23
2023-03-26T04:37:48.787Z,2.07
2023-03-26T04:40:30.556Z,2.40
2023-03-26T04:43:26.352Z,2.10
2023-03-26T04:45:57.133Z,1.93
2023-03-26T04:48:30.299Z,1.80
2023-03-26T04:50:59.224Z,1.90
2023-03-26T04:53:27.062Z,2.00
2023-03-26T04:56:21.088Z,1.90
2023-03-26T04:59:14.823Z,1.80
2023-03-26T05:01:45.713Z,1.80
2023-03-26T05:04:16.721Z,2.03
2023-03-26T05:06:45.270Z,1.80
2023-03-26T05:09:28.913Z,1.77
2023-03-26T05:12:17.720Z,1.57
2023-03-26T05:15:00.052Z,1.50
2023-03-26T05:17:42.975Z,1.63
2023-03-26T05:20:21.825Z,1.73
2023-03-26T05:22:50.289Z,1.93
2023-03-26T05:25:24.945Z,1.87
2023-03-26T05:27:53.171Z,2.13
2023-03-26T05:30:22.956Z,2.00
2023-03-26T05:32:56.637Z,2.20
2023-03-26T05:35:30.899Z,2.00
2023-03-26T05:37:58.892Z,1.80
2023-03-26T05:40:27.284Z,2.03
2023-03-26T05:42:58.349Z,1.83
2023-03-26T05:45:35.359Z,1.97
2023-03-26T05:48:15.967Z,2.37
2023-03-26T05:50:45.328Z,2.03
2023-03-26T05:53:13.348Z,2.10
2023-03-26T05:56:00.771Z,1.93
2023-03-26T05:58:47.479Z,2.03
2023-03-26T06:01:33.709Z,2.10
2023-03-26T06:04:21.987Z,1.80
2023-03-26T06:07:11.520Z,2.00
2023-03-26T06:09:41.439Z,1.70
2023-03-26T06:12:10.928Z,1.50
2023-03-26T06:14:42.398Z,1.63
2023-03-26T06:17:20.686Z,1.90
2023-03-26T06:20:12.272Z,1.40
2023-03-26T06:22:44.696Z,1.80
2023-03-26T06:25:42.059Z,1.70
2023-03-26T06:28:16.592Z,1.90
2023-03-26T06:30:47.265Z,1.80
2023-03-26T06:33:24.674Z,1.50
2023-03-26T06:35:52.915Z,1.50
2023-03-26T06:38:22.307Z,1.63
2023-03-26T06:40:50.286Z,1.60
2023-03-26T06:43:27.237Z,1.60
2023-03-26T06:46:16.437Z,1.40
2023-03-26T06:49:02.461Z,1.40
2023-03-26T06:51:49.121Z,1.60
2023-03-26T06:54:28.345Z,1.90
2023-03-26T06:57:10.242Z,1.60
2023-03-26T07:00:04.633Z,2.13
2023-03-26T07:02:51.353Z,1.60
2023-03-26T07:05:37.912Z,1.93
2023-03-26T07:08:26.323Z,1.63
2023-03-26T07:11:14.145Z,1.73
2023-03-26T07:13:56.211Z,1.40
2023-03-26T07:16:45.781Z,1.87
2023-03-26T07:19:45.791Z,1.50
2023-03-26T07:22:16.681Z,1.80
2023-03-26T07:25:12.681Z,1.27
2023-03-26T07:28:08.942Z,1.70
2023-03-26T07:31:20.905Z,1.73
2023-03-26T07:34:29.340Z,1.50
2023-03-26T07:37:20.192Z,1.83
2023-03-26T07:40:19.105Z,1.57
2023-03-26T07:43:26.936Z,1.53
2023-03-26T07:46:14.473Z,1.50
2023-03-26T07:48:54.958Z,1.47
2023-03-26T07:51:42.284Z,1.60
2023-03-26T07:54:16.949Z,1.70
2023-03-26T07:57:33.202Z,2.27
2023-03-26T08:00:23.558Z,1.60
2023-03-26T08:03:42.766Z,1.63
2023-03-26T08:06:34.796Z,1.50
2023-03-26T08:09:22.193Z,1.50
2023-03-26T08:12:22.807Z,1.50
2023-03-26T08:14:55.233Z,1.60
2023-03-26T08:17:31.267Z,1.77
2023-03-26T08:20:09.312Z,1.70
2023-03-26T08:22:40.997Z,1.70
2023-03-26T08:25:19.608Z,1.97
2023-03-26T08:27:55.798Z,1.87
2023-03-26T08:30:25.297Z,1.70
2023-03-26T08:32:57.439Z,2.10
2023-03-26T08:35:25.443Z,1.63
2023-03-26T08:37:53.734Z,2.10
2023-03-26T08:40:39.546Z,2.27
2023-03-26T08:43:20.365Z,1.80
2023-03-26T08:45:56.744Z,2.00
2023-03-26T08:49:03.793Z,1.80
2023-03-26T08:51:59.522Z,2.20
2023-03-26T08:55:04.138Z,1.90
2023-03-26T08:58:07.741Z,1.97
2023-03-26T09:00:51.986Z,1.90
2023-03-26T09:04:14.468Z,2.53
2023-03-26T09:07:16.112Z,2.50
2023-03-26T09:10:18.339Z,3.07
2023-03-26T09:13:11.807Z,2.20
2023-03-26T09:16:09.443Z,2.20
2023-03-26T09:18:55.706Z,2.30
2023-03-26T09:21:34.902Z,2.37
2023-03-26T09:24:27.498Z,2.23
2023-03-26T09:27:01.916Z,2.47
2023-03-26T09:30:02.488Z,2.50
2023-03-26T09:33:09.761Z,2.50
2023-03-26T09:35:53.609Z,2.27
2023-03-26T09:38:40.338Z,2.50
2023-03-26T09:41:15.395Z,1.83
2023-03-26T09:44:11.433Z,1.50
2023-03-26T09:46:48.009Z,1.73
2023-03-26T09:49:34.445Z,1.73
2023-03-26T09:52:13.325Z,1.90
2023-03-26T09:55:03.760Z,1.80
2023-03-26T09:57:45.200Z,1.90
2023-03-26T10:00:29.564Z,2.10
2023-03-26T10:03:27.016Z,1.90
2023-03-26T10:06:00.622Z,1.80
2023-03-26T10:08:39.844Z,1.80
2023-03-26T10:11:13.685Z,2.00
2023-03-26T10:13:52.432Z,2.20
2023-03-26T10:16:26.551Z,2.07
2023-03-26T10:19:04.248Z,1.90
2023-03-26T10:21:41.378Z,2.03
2023-03-26T10:24:18.680Z,2.00
2023-03-26T10:27:09.689Z,1.93
2023-03-26T10:30:22.936Z,2.03
2023-03-26T10:32:57.584Z,2.07
2023-03-26T10:35:34.925Z,1.83
2023-03-26T10:38:14.462Z,2.70
2023-03-26T10:40:49.096Z,2.40
2023-03-26T10:44:01.295Z,2.33
2023-03-26T10:47:02.794Z,2.60
2023-03-26T10:50:04.963Z,2.40
2023-03-26T10:52:36.153Z,2.40
2023-03-26T10:55:12.629Z,2.33
2023-03-26T10:57:42.490Z,2.67
2023-03-26T11:00:24.919Z,2.40
2023-03-26T11:03:16.037Z,3.40
2023-03-26T11:05:48.910Z,2.77
2023-03-26T11:08:31.158Z,2.77
2023-03-26T11:11:05.914Z,3.00
2023-03-26T11:13:45.468Z,2.67
2023-03-26T11:16:19.636Z,2.50
2023-03-26T11:18:52.861Z,2.47
2023-03-26T11:21:26.215Z,3.67
2023-03-26T11:24:04.514Z,2.80
2023-03-26T11:26:39.629Z,2.70
2023-03-26T11:29:32.690Z,2.50
2023-03-26T11:32:06.380Z,2.37
2023-03-26T11:34:38.272Z,2.70
2023-03-26T11:37:09.119Z,2.67
2023-03-26T11:39:44.003Z,2.70
2023-03-26T11:42:14.985Z,3.07
2023-03-26T11:44:48.201Z,3.20
2023-03-26T11:47:23.188Z,2.63
2023-03-26T11:49:52.887Z,7.90
2023-03-26T11:52:21.621Z,3.27
2023-03-26T11:54:50.606Z,2.83
2023-03-26T11:57:22.189Z,3.30
2023-03-26T11:59:57.542Z,2.83
2023-03-26T12:02:32.578Z,2.70
2023-03-26T12:05:16.329Z,2.77
2023-03-26T12:07:48.264Z,3.67
2023-03-26T12:10:28.905Z,4.60
2023-03-26T12:12:59.774Z,2.50
2023-03-26T12:15:28.786Z,2.50
2023-03-26T12:17:59.622Z,2.40
2023-03-26T12:20:38.570Z,2.93
2023-03-26T12:23:08.168Z,2.30
2023-03-26T12:25:37.443Z,2.20
2023-03-26T12:28:13.074Z,3.33
2023-03-26T12:30:42.244Z,2.40
2023-03-26T12:33:18.158Z,2.83
2023-03-26T12:35:46.353Z,3.07
2023-03-26T12:38:24.209Z,2.47
2023-03-26T12:41:07.862Z,2.53
2023-03-26T12:44:46.871Z,2.20
2023-03-26T12:47:56.195Z,2.30
2023-03-26T12:49:21.362Z,2.23
2023-03-26T12:51:51.755Z,2.50
2023-03-26T12:54:35.886Z,2.37
2023-03-26T12:57:21.068Z,2.43
2023-03-26T12:59:57.773Z,2.20
2023-03-26T13:02:41.954Z,2.60
2023-03-26T13:05:21.191Z,2.50
2023-03-26T13:08:05.243Z,2.00
2023-03-26T13:10:51.710Z,2.17
2023-03-26T13:13:36.160Z,2.30
2023-03-26T13:16:11.138Z,1.93
2023-03-26T13:18:45.425Z,2.20
2023-03-26T13:21:19.597Z,1.90
2023-03-26T13:23:52.221Z,1.90
2023-03-26T13:26:33.945Z,1.93
2023-03-26T13:29:07.928Z,2.53
2023-03-26T13:31:40.644Z,2.50
2023-03-26T13:34:14.891Z,1.70
2023-03-26T13:36:49.659Z,1.53
2023-03-26T13:39:27.399Z,2.00
2023-03-26T13:42:14.512Z,1.90
2023-03-26T13:44:51.186Z,1.77
2023-03-26T13:47:21.061Z,1.13
2023-03-26T13:49:52.773Z,1.67
2023-03-26T13:52:24.180Z,1.60
2023-03-26T13:54:56.473Z,1.90
2023-03-26T13:57:29.363Z,1.87
2023-03-26T13:59:59.550Z,2.37
2023-03-26T14:02:34.203Z,2.33
2023-03-26T14:05:05.736Z,2.10
2023-03-26T14:07:40.212Z,1.77
2023-03-26T14:10:11.430Z,1.67
2023-03-26T14:12:49.003Z,1.90
2023-03-26T14:15:23.159Z,1.80
2023-03-26T14:17:54.523Z,1.60
2023-03-26T14:20:57.443Z,2.03
2023-03-26T14:23:50.698Z,2.60
2023-03-26T14:26:26.682Z,2.77
2023-03-26T14:29:18.684Z,5.37
2023-03-26T14:31:53.889Z,3.30
2023-03-26T14:34:34.379Z,3.10
2023-03-26T14:37:28.138Z,2.30
2023-03-26T14:40:17.079Z,1.83
2023-03-26T14:42:56.487Z,2.30
2023-03-26T14:45:39.130Z,1.43
2023-03-26T14:48:27.844Z,1.90
2023-03-26T14:51:08.872Z,1.77
2023-03-26T14:53:40.050Z,1.70
2023-03-26T14:56:42.241Z,1.50
2023-03-26T14:59:36.386Z,1.63
2023-03-26T15:02:37.415Z,1.77
2023-03-26T15:05:56.215Z,1.73
2023-03-26T15:08:49.080Z,1.93
2023-03-26T15:11:25.924Z,1.70
2023-03-26T15:14:03.244Z,2.10
2023-03-26T15:16:59.316Z,1.63
2023-03-26T15:20:02.958Z,1.30
2023-03-26T15:23:09.843Z,2.27
2023-03-26T15:26:18.642Z,1.93
2023-03-26T15:29:08.411Z,1.90
2023-03-26T15:32:13.490Z,1.50
2023-03-26T15:34:57.839Z,2.00
2023-03-26T15:38:04.111Z,1.70
2023-03-26T15:41:01.656Z,1.90
2023-03-26T15:43:39.599Z,2.30
2023-03-26T15:46:27.071Z,2.20
2023-03-26T15:49:00.690Z,2.33
2023-03-26T15:51:47.514Z,2.70
2023-03-26T15:54:23.808Z,1.87
2023-03-26T15:57:10.288Z,1.83
2023-03-26T15:59:43.290Z,1.70
2023-03-26T16:02:26.147Z,1.77
2023-03-26T16:04:55.584Z,1.90
2023-03-26T16:07:41.519Z,2.03
2023-03-26T16:10:29.272Z,1.87
2023-03-26T16:13:24.469Z,2.03
2023-03-26T16:15:55.959Z,1.47
2023-03-26T16:18:32.135Z,1.80
2023-03-26T16:21:06.818Z,2.33
2023-03-26T16:23:47.616Z,2.10
2023-03-26T16:26:18.268Z,2.30
2023-03-26T16:29:22.188Z,1.97
2023-03-26T16:32:07.040Z,2.20
2023-03-26T16:34:42.552Z,2.23
2023-03-26T16:37:37.089Z,2.10
2023-03-26T16:40:41.829Z,1.83
2023-03-26T16:43:42.150Z,1.80
2023-03-26T16:46:18.056Z,2.10
2023-03-26T16:48:51.585Z,1.83
2023-03-26T16:51:27.067Z,2.10
2023-03-26T16:54:00.869Z,2.00
2023-03-26T16:56:34.622Z,2.27
2023-03-26T16:59:09.217Z,2.17
2023-03-26T17:01:43.085Z,2.10
2023-03-26T17:04:17.144Z,2.37
2023-03-26T17:07:13.846Z,2.47
2023-03-26T17:09:52.575Z,2.20
2023-03-26T17:12:28.087Z,2.40
2023-03-26T17:15:18.156Z,2.67
2023-03-26T17:17:53.852Z,2.50
2023-03-26T17:20:32.996Z,2.57
2023-03-26T17:23:15.132Z,2.30
2023-03-26T17:25:53.696Z,2.30
2023-03-26T17:28:56.124Z,2.43
2023-03-26T17:31:33.592Z,2.60
2023-03-26T17:34:35.369Z,2.17
2023-03-26T17:37:05.283Z,2.20
2023-03-26T17:40:12.329Z,2.30
2023-03-26T17:43:01.551Z,2.93
2023-03-26T17:45:31.932Z,3.07
2023-03-26T17:48:03.141Z,2.53
2023-03-26T17:50:33.269Z,2.83
2023-03-26T17:53:03.165Z,2.70
2023-03-26T17:55:32.599Z,2.70
2023-03-26T17:58:04.790Z,2.03
2023-03-26T18:00:34.610Z,2.17
2023-03-26T18:03:05.744Z,2.63
2023-03-26T18:05:34.422Z,2.77
2023-03-26T18:08:25.258Z,2.40
2023-03-26T18:11:32.723Z,2.40
2023-03-26T18:14:28.655Z,3.17
2023-03-26T18:16:58.584Z,2.70
2023-03-26T18:19:27.466Z,2.23
2023-03-26T18:21:58.323Z,2.47
2023-03-26T18:24:28.573Z,2.30
2023-03-26T18:26:58.429Z,2.97
2023-03-26T18:29:28.985Z,2.90
2023-03-26T18:32:00.279Z,2.93
2023-03-26T18:34:31.496Z,2.80
2023-03-26T18:37:15.168Z,2.63
2023-03-26T18:39:44.708Z,3.17
2023-03-26T18:42:22.648Z,3.63
2023-03-26T18:45:00.295Z,5.03
2023-03-26T18:47:30.629Z,2.60
2023-03-26T18:49:59.335Z,2.57
2023-03-26T18:52:29.305Z,2.57
2023-03-26T18:54:59.071Z,3.60
2023-03-26T18:57:29.008Z,4.57
2023-03-26T19:00:10.236Z,3.50
2023-03-26T19:02:39.545Z,4.27
2023-03-26T19:05:09.300Z,4.10
2023-03-26T19:07:37.873Z,4.07
2023-03-26T19:10:06.585Z,3.30
2023-03-26T19:12:36.540Z,3.20
2023-03-26T19:15:10.555Z,2.77
2023-03-26T19:17:44.477Z,3.60
2023-03-26T19:20:16.749Z,3.47
2023-03-26T19:22:45.431Z,3.87
2023-03-26T19:25:21.500Z,2.83
2023-03-26T19:27:50.464Z,2.87
2023-03-26T19:30:29.118Z,2.73
2023-03-26T19:33:12.280Z,2.90
2023-03-26T19:35:43.252Z,2.93
2023-03-26T19:38:24.650Z,2.83
2023-03-26T19:40:54.551Z,2.73
2023-03-26T19:43:23.357Z,2.83
2023-03-26T19:45:59.800Z,2.97
2023-03-26T19:48:45.426Z,4.00
2023-03-26T19:51:20.318Z,3.10
2023-03-26T19:53:54.101Z,2.53
2023-03-26T19:56:22.897Z,3.10
2023-03-26T19:58:51.164Z,3.40
2023-03-26T20:01:22.017Z,3.33
2023-03-26T20:03:51.444Z,3.50
2023-03-26T20:06:30.782Z,3.40
2023-03-26T20:09:06.294Z,3.43
2023-03-26T20:11:38.437Z,3.37
2023-03-26T20:14:12.756Z,3.20
2023-03-26T20:16:44.401Z,3.63
2023-03-26T20:19:13.065Z,3.00
2023-03-26T20:21:41.284Z,3.20
2023-03-26T20:24:12.576Z,3.83
2023-03-26T20:26:40.483Z,3.80
2023-03-26T20:29:08.329Z,3.67
2023-03-26T20:31:37.329Z,3.10
2023-03-26T20:34:12.313Z,3.23
2023-03-26T20:36:40.721Z,2.93
2023-03-26T20:39:09.538Z,3.30
2023-03-26T20:41:41.183Z,4.07
2023-03-26T20:44:13.527Z,3.83
2023-03-26T20:46:41.470Z,3.13
2023-03-26T20:49:11.493Z,4.10
2023-03-26T20:51:41.697Z,3.60
2023-03-26T20:54:14.704Z,2.80
2023-03-26T20:56:43.123Z,3.53
2023-03-26T20:59:11.827Z,2.90
2023-03-26T21:01:39.868Z,2.80
2023-03-26T21:04:08.002Z,3.17
2023-03-26T21:06:37.680Z,2.90
2023-03-26T21:09:06.199Z,3.00
2023-03-26T21:11:43.003Z,3.10
2023-03-26T21:14:16.883Z,3.10
2023-03-26T21:16:45.235Z,3.97
2023-03-26T21:19:13.792Z,3.70
2023-03-26T21:21:53.035Z,3.20
2023-03-26T21:24:29.497Z,3.43
2023-03-26T21:27:00.914Z,3.20
2023-03-26T21:29:29.200Z,3.20
2023-03-26T21:31:57.598Z,3.83
2023-03-26T21:34:27.692Z,3.47
2023-03-26T21:36:57.536Z,3.50
2023-03-26T21:39:25.807Z,2.80
2023-03-26T21:42:04.822Z,2.80
2023-03-26T21:44:34.545Z,3.23
2023-03-26T21:47:02.834Z,3.13
2023-03-26T21:49:31.394Z,3.43
2023-03-26T21:52:01.263Z,3.67
2023-03-26T21:54:31.517Z,2.73
2023-03-26T21:57:07.620Z,2.60
2023-03-26T21:59:41.206Z,3.37
2023-03-26T22:02:13.197Z,3.00
2023-03-26T22:04:46.372Z,2.37
2023-03-26T22:07:18.666Z,3.43
2023-03-26T22:09:46.998Z,3.27
2023-03-26T22:12:14.810Z,3.57
2023-03-26T22:14:42.762Z,2.70
2023-03-26T22:17:10.842Z,3.20
2023-03-26T22:19:38.682Z,2.87
2023-03-26T22:22:06.681Z,2.83
2023-03-26T22:24:35.889Z,2.70
2023-03-26T22:27:03.749Z,2.63
2023-03-26T22:29:31.596Z,2.80
2023-03-26T22:31:59.433Z,3.10
2023-03-26T22:34:27.352Z,2.60
2023-03-26T22:36:55.197Z,2.77
2023-03-26T22:39:23.347Z,3.03
2023-03-26T22:41:52.537Z,3.57
2023-03-26T22:44:20.745Z,3.00
2023-03-26T22:46:51.072Z,2.80
2023-03-26T22:49:19.499Z,3.13
2023-03-26T22:51:47.374Z,3.10
2023-03-26T22:54:15.551Z,3.10
2023-03-26T22:56:43.884Z,2.87
2023-03-26T22:59:13.156Z,2.50
2023-03-26T23:01:41.406Z,2.93
2023-03-26T23:04:09.388Z,2.70
2023-03-26T23:06:37.335Z,2.73
2023-03-26T23:09:07.008Z,2.80
2023-03-26T23:11:34.897Z,2.50
2023-03-26T23:14:02.801Z,2.87
2023-03-26T23:16:32.677Z,2.83
2023-03-26T23:19:00.617Z,2.80
2023-03-26T23:21:28.483Z,2.83
2023-03-26T23:23:56.460Z,2.40
2023-03-26T23:26:24.405Z,2.53
2023-03-26T23:28:52.606Z,2.43
2023-03-26T23:31:20.543Z,2.50
2023-03-26T23:33:50.318Z,2.47
2023-03-26T23:36:19.571Z,2.10
2023-03-26T23:38:48.222Z,2.27
2023-03-26T23:41:17.163Z,2.20
2023-03-26T23:43:53.314Z,2.10
2023-03-26T23:46:23.695Z,2.30
2023-03-26T23:48:53.444Z,2.20
2023-03-26T23:51:22.407Z,2.20
2023-03-26T23:53:50.373Z,2.00
2023-03-26T23:56:19.022Z,1.90
2023-03-26T23:58:47.641Z,2.00
